^^
Grace C. Lehan Memorial Weather Station Historical Data
Daily Summary for May 31, 2021 Units:  Both    English   Metric
Daily Weekly Monthly Yearly
  High: Low: Average:
Temperature: 23.4 °F /  -4.8 °C 8.9 °F /  -12.8 °C 17.5 °F /  -8.1 °C
Dew Point: 15.9 °F /  -8.9 °C 3 °F /  -16.1 °C 7.5 °F /  -13.6 °C
Humidity: 80% 48.5% 65%
Wind Speed: 3.9mph /  6.3km/h - 0.7mph /  1.1km/h
Wind Gust: 11mph /  17.7km/h - -
Wind- - SE
Pressure: 30.35 in /  1027.7 hPa 30.19 in /  1022.2 hPa -
Precipitation: 0.00 in /  0 mm    
 
 
Tabular Data for May 31, 2021
Time Temperature Dew Point Pressure Wind Wind Speed Wind Gust Humidity Rainfall Rate (Hourly) solar
00:04 13.6 °F /  -10.2 °C 7.4 °F /  -13.7 °C 30.29in /  1025.6hPa NNW 1.1mph /  1.8km/h 4mph /  6.4km/h 75.9% 0.00in /  0mm 0 W/m2
00:09 13.6 °F /  -10.2 °C 7.5 °F /  -13.6 °C 30.29in /  1025.6hPa NNW 0.3mph /  0.5km/h 4mph /  6.4km/h 76% 0.00in /  0mm 0 W/m2
00:14 13.6 °F /  -10.2 °C 7.5 °F /  -13.6 °C 30.30in /  1026hPa NNW 0.6mph /  1km/h 4mph /  6.4km/h 76% 0.00in /  0mm 0 W/m2
00:19 13.6 °F /  -10.2 °C 7.5 °F /  -13.6 °C 30.30in /  1026hPa NNW 0.7mph /  1.1km/h 4mph /  6.4km/h 76% 0.00in /  0mm 0 W/m2
00:24 13.6 °F /  -10.2 °C 7.5 °F /  -13.6 °C 30.30in /  1026hPa NNW 1.1mph /  1.8km/h 4mph /  6.4km/h 76% 0.00in /  0mm 0 W/m2
00:29 13.5 °F /  -10.3 °C 7.4 °F /  -13.7 °C 30.30in /  1026hPa NNW 0.8mph /  1.3km/h 4mph /  6.4km/h 76% 0.00in /  0mm 0 W/m2
00:34 13.4 °F /  -10.3 °C 7.3 °F /  -13.7 °C 30.30in /  1026hPa NNW 1.1mph /  1.8km/h 4mph /  6.4km/h 76% 0.00in /  0mm 0 W/m2
00:39 13.2 °F /  -10.4 °C 7.1 °F /  -13.8 °C 30.30in /  1026hPa NNW 2.3mph /  3.7km/h 5mph /  8km/h 76% 0.00in /  0mm 0 W/m2
00:44 13.2 °F /  -10.4 °C 7.3 °F /  -13.7 °C 30.29in /  1025.6hPa NNW 1.5mph /  2.4km/h 5mph /  8km/h 76.8% 0.00in /  0mm 0 W/m2
00:49 13.4 °F /  -10.3 °C 7.5 °F /  -13.6 °C 30.30in /  1026hPa NNW 1mph /  1.6km/h 5mph /  8km/h 77% 0.00in /  0mm 0 W/m2
00:54 13.5 °F /  -10.3 °C 7.7 °F /  -13.5 °C 30.30in /  1026hPa NNW 0.9mph /  1.4km/h 5mph /  8km/h 77% 0.00in /  0mm 0 W/m2
00:59 13.7 °F /  -10.2 °C 7.8 °F /  -13.4 °C 30.31in /  1026.3hPa NNW 0.8mph /  1.3km/h 5mph /  8km/h 76.8% 0.00in /  0mm 0 W/m2
01:04 13.9 °F /  -10.1 °C 7.7 °F /  -13.5 °C 30.31in /  1026.3hPa NNW 1.2mph /  1.9km/h 5mph /  8km/h 76% 0.00in /  0mm 0 W/m2
01:09 14.1 °F /  -9.9 °C 7.9 °F /  -13.4 °C 30.31in /  1026.3hPa NNW 0.7mph /  1.1km/h 3mph /  4.8km/h 76% 0.00in /  0mm 0 W/m2
01:14 14.1 °F /  -9.9 °C 7.8 °F /  -13.4 °C 30.31in /  1026.3hPa NNW 0.5mph /  0.8km/h 3mph /  4.8km/h 75.4% 0.00in /  0mm 0 W/m2
01:19 14.2 °F /  -9.9 °C 7.7 °F /  -13.5 °C 30.30in /  1026hPa NNW 1.4mph /  2.3km/h 4mph /  6.4km/h 75% 0.00in /  0mm 0 W/m2
01:24 14.3 °F /  -9.8 °C 7.8 °F /  -13.4 °C 30.31in /  1026.3hPa NNW 1mph /  1.6km/h 4mph /  6.4km/h 75% 0.00in /  0mm 0 W/m2
01:29 14.3 °F /  -9.8 °C 7.6 °F /  -13.6 °C 30.31in /  1026.3hPa NNW 1.8mph /  2.9km/h 5mph /  8km/h 74.2% 0.00in /  0mm 0 W/m2
01:34 14.3 °F /  -9.8 °C 7.6 °F /  -13.6 °C 30.31in /  1026.3hPa NNW 1.2mph /  1.9km/h 5mph /  8km/h 74% 0.00in /  0mm 0 W/m2
01:39 14.4 °F /  -9.8 °C 7.6 °F /  -13.6 °C 30.31in /  1026.3hPa NNW 0.4mph /  0.6km/h 4mph /  6.4km/h 74% 0.00in /  0mm 0 W/m2
01:44 14.4 °F /  -9.8 °C 7.6 °F /  -13.6 °C 30.31in /  1026.3hPa Calm   4mph /  6.4km/h 74% 0.00in /  0mm 0 W/m2
01:49 14.4 °F /  -9.8 °C 7.6 °F /  -13.6 °C 30.32in /  1026.6hPa NNW 0.1mph /  0.2km/h 4mph /  6.4km/h 74% 0.00in /  0mm 0 W/m2
01:54 14.4 °F /  -9.8 °C 7.6 °F /  -13.6 °C 30.32in /  1026.6hPa Calm   4mph /  6.4km/h 74% 0.00in /  0mm 0 W/m2
01:59 14.3 °F /  -9.8 °C 7.6 °F /  -13.6 °C 30.32in /  1026.6hPa NNW 0.1mph /  0.2km/h 4mph /  6.4km/h 74% 0.00in /  0mm 0 W/m2
02:04 14.2 °F /  -9.9 °C 7.2 °F /  -13.8 °C 30.32in /  1026.6hPa NNW 0.6mph /  1km/h 4mph /  6.4km/h 73.2% 0.00in /  0mm 0 W/m2
02:09 14.1 °F /  -9.9 °C 7 °F /  -13.9 °C 30.32in /  1026.6hPa NNW 0.6mph /  1km/h 3mph /  4.8km/h 73% 0.00in /  0mm 0 W/m2
02:14 13.9 °F /  -10.1 °C 6.6 °F /  -14.1 °C 30.32in /  1026.6hPa North 1.5mph /  2.4km/h 5mph /  8km/h 72.1% 0.00in /  0mm 0 W/m2
02:19 13.7 °F /  -10.2 °C 6.2 °F /  -14.3 °C 30.32in /  1026.6hPa NNE 2mph /  3.2km/h 5mph /  8km/h 71.3% 0.00in /  0mm 0 W/m2
02:24 13.6 °F /  -10.2 °C 6 °F /  -14.4 °C 30.32in /  1026.6hPa NE 0.8mph /  1.3km/h 5mph /  8km/h 71% 0.00in /  0mm 0 W/m2
02:29 13.5 °F /  -10.3 °C 5.8 °F /  -14.6 °C 30.32in /  1026.6hPa NE 0.8mph /  1.3km/h 5mph /  8km/h 71% 0.00in /  0mm 0 W/m2
02:34 13.3 °F /  -10.4 °C 5.7 °F /  -14.6 °C 30.32in /  1026.6hPa NE 0.8mph /  1.3km/h 5mph /  8km/h 71% 0.00in /  0mm 0 W/m2
02:39 13.2 °F /  -10.4 °C 5.6 °F /  -14.7 °C 30.32in /  1026.6hPa NE 0.6mph /  1km/h 3mph /  4.8km/h 71% 0.00in /  0mm 0 W/m2
02:44 13 °F /  -10.6 °C 5.4 °F /  -14.8 °C 30.32in /  1026.6hPa NE 0.8mph /  1.3km/h 4mph /  6.4km/h 71% 0.00in /  0mm 0 W/m2
02:49 12.9 °F /  -10.6 °C 5.3 °F /  -14.8 °C 30.32in /  1026.6hPa NE 0.9mph /  1.4km/h 4mph /  6.4km/h 71% 0.00in /  0mm 0 W/m2
02:54 12.7 °F /  -10.7 °C 5.1 °F /  -14.9 °C 30.32in /  1026.6hPa NE 1.6mph /  2.6km/h 4mph /  6.4km/h 71% 0.00in /  0mm 0 W/m2
02:59 12.6 °F /  -10.8 °C 5 °F /  -15 °C 30.32in /  1026.6hPa NE 1.2mph /  1.9km/h 5mph /  8km/h 71% 0.00in /  0mm 0 W/m2
03:04 12.5 °F /  -10.8 °C 4.9 °F /  -15.1 °C 30.32in /  1026.6hPa NE 0.3mph /  0.5km/h 5mph /  8km/h 71% 0.00in /  0mm 0 W/m2
03:09 12.4 °F /  -10.9 °C 4.8 °F /  -15.1 °C 30.32in /  1026.6hPa NE 0.1mph /  0.2km/h 3mph /  4.8km/h 71% 0.00in /  0mm 0 W/m2
03:14 12.3 °F /  -10.9 °C 4.7 °F /  -15.2 °C 30.32in /  1026.6hPa NE 0.1mph /  0.2km/h 3mph /  4.8km/h 71% 0.00in /  0mm 0 W/m2
03:19 12.2 °F /  -11 °C 4.6 °F /  -15.2 °C 30.32in /  1026.6hPa NE 0.7mph /  1.1km/h 3mph /  4.8km/h 71% 0.00in /  0mm 0 W/m2
03:24 12.1 °F /  -11.1 °C 4.7 °F /  -15.2 °C 30.32in /  1026.6hPa NE 0.5mph /  0.8km/h 3mph /  4.8km/h 71.5% 0.00in /  0mm 0 W/m2
03:29 12 °F /  -11.1 °C 4.7 °F /  -15.2 °C 30.33in /  1027hPa NE 0.1mph /  0.2km/h 3mph /  4.8km/h 72% 0.00in /  0mm 0 W/m2
03:34 11.8 °F /  -11.2 °C 4.6 °F /  -15.2 °C 30.33in /  1027hPa NE 0.4mph /  0.6km/h 3mph /  4.8km/h 72.2% 0.00in /  0mm 0 W/m2
03:39 11.7 °F /  -11.3 °C 4.7 °F /  -15.2 °C 30.33in /  1027hPa NE 0.5mph /  0.8km/h 2mph /  3.2km/h 73% 0.00in /  0mm 0 W/m2
03:44 11.5 °F /  -11.4 °C 4.6 °F /  -15.2 °C 30.33in /  1027hPa NE 0.7mph /  1.1km/h 4mph /  6.4km/h 73% 0.00in /  0mm 0 W/m2
03:49 11.4 °F /  -11.4 °C 4.4 °F /  -15.3 °C 30.33in /  1027hPa NE 0.7mph /  1.1km/h 4mph /  6.4km/h 73% 0.00in /  0mm 0 W/m2
03:54 11.3 °F /  -11.5 °C 4.3 °F /  -15.4 °C 30.33in /  1027hPa NE 0.9mph /  1.4km/h 4mph /  6.4km/h 73% 0.00in /  0mm 0 W/m2
03:59 11.2 °F /  -11.6 °C 4.6 °F /  -15.2 °C 30.32in /  1026.6hPa NE 0.3mph /  0.5km/h 4mph /  6.4km/h 74% 0.00in /  0mm 0 W/m2
04:00 11.2 °F /  -11.6 °C 4.5 °F /  -15.3 °C 30.32in /  1026.6hPa NE 1mph /  1.6km/h 4mph /  6.4km/h 74% 0.00in /  0mm 0 W/m2
04:09 11.1 °F /  -11.6 °C 4.5 °F /  -15.3 °C 30.32in /  1026.6hPa NE 0.7mph /  1.1km/h 3mph /  4.8km/h 74% 0.00in /  0mm 0 W/m2
04:14 11.1 °F /  -11.6 °C 4.4 °F /  -15.3 °C 30.31in /  1026.3hPa NE 0.8mph /  1.3km/h 4mph /  6.4km/h 74% 0.00in /  0mm 0 W/m2
04:19 11 °F /  -11.7 °C 4.4 °F /  -15.3 °C 30.31in /  1026.3hPa NE 0.9mph /  1.4km/h 4mph /  6.4km/h 74% 0.00in /  0mm 0 W/m2
04:24 11 °F /  -11.7 °C 4.4 °F /  -15.3 °C 30.32in /  1026.6hPa NE 0.6mph /  1km/h 4mph /  6.4km/h 74% 0.00in /  0mm 0 W/m2
04:29 11 °F /  -11.7 °C 4.3 °F /  -15.4 °C 30.32in /  1026.6hPa NE 0.6mph /  1km/h 4mph /  6.4km/h 74% 0.00in /  0mm 0 W/m2
04:34 10.9 °F /  -11.7 °C 4.3 °F /  -15.4 °C 30.33in /  1027hPa NE 0.1mph /  0.2km/h 4mph /  6.4km/h 74% 0.00in /  0mm 0 W/m2
04:39 10.8 °F /  -11.8 °C 4 °F /  -15.6 °C 30.33in /  1027hPa NE 0.3mph /  0.5km/h 2mph /  3.2km/h 73.5% 0.00in /  0mm 0 W/m2
04:44 10.7 °F /  -11.8 °C 4.1 °F /  -15.5 °C 30.33in /  1027hPa Calm   2mph /  3.2km/h 74% 0.00in /  0mm 0 W/m2
04:49 10.6 °F /  -11.9 °C 4 °F /  -15.6 °C 30.33in /  1027hPa Calm   2mph /  3.2km/h 74% 0.00in /  0mm 0 W/m2
04:54 10.5 °F /  -11.9 °C 3.9 °F /  -15.6 °C 30.33in /  1027hPa Calm   2mph /  3.2km/h 74% 0.00in /  0mm 0 W/m2
04:59 10.4 °F /  -12 °C 3.7 °F /  -15.7 °C 30.33in /  1027hPa Calm   2mph /  3.2km/h 74% 0.00in /  0mm 0 W/m2
05:04 10.3 °F /  -12.1 °C 3.6 °F /  -15.8 °C 30.33in /  1027hPa Calm   2mph /  3.2km/h 74% 0.00in /  0mm 0 W/m2
05:09 10.2 °F /  -12.1 °C 3.5 °F /  -15.8 °C 30.33in /  1027hPa Calm     74% 0.00in /  0mm 0 W/m2
05:14 10 °F /  -12.2 °C 3.4 °F /  -15.9 °C 30.34in /  1027.3hPa Calm     74% 0.00in /  0mm 0 W/m2
05:19 9.9 °F /  -12.3 °C 3.4 °F /  -15.9 °C 30.34in /  1027.3hPa Calm     74.2% 0.00in /  0mm 0 W/m2
05:24 9.8 °F /  -12.3 °C 3.5 °F /  -15.8 °C 30.34in /  1027.3hPa Calm     75% 0.00in /  0mm 0 W/m2
05:29 9.8 °F /  -12.3 °C 3.5 °F /  -15.8 °C 30.34in /  1027.3hPa Calm     75% 0.00in /  0mm 0 W/m2
05:34 9.7 °F /  -12.4 °C 3.4 °F /  -15.9 °C 30.34in /  1027.3hPa Calm     75% 0.00in /  0mm 0 W/m2
05:39 9.6 °F /  -12.4 °C 3.3 °F /  -15.9 °C 30.34in /  1027.3hPa Calm     75% 0.00in /  0mm 0 W/m2
05:44 9.6 °F /  -12.4 °C 3.3 °F /  -15.9 °C 30.34in /  1027.3hPa Calm     75% 0.00in /  0mm 0 W/m2
05:49 9.5 °F /  -12.5 °C 3.2 °F /  -16 °C 30.35in /  1027.7hPa Calm     75% 0.00in /  0mm 0 W/m2
05:54 9.4 °F /  -12.6 °C 3.1 °F /  -16.1 °C 30.35in /  1027.7hPa Calm     75% 0.00in /  0mm 0 W/m2
05:59 9.3 °F /  -12.6 °C 3 °F /  -16.1 °C 30.34in /  1027.3hPa Calm     75.3% 0.00in /  0mm 0 W/m2
06:04 9.2 °F /  -12.7 °C 3.2 °F /  -16 °C 30.35in /  1027.7hPa Calm     76% 0.00in /  0mm 0 W/m2
06:09 9.1 °F /  -12.7 °C 3.1 °F /  -16.1 °C 30.35in /  1027.7hPa Calm     76% 0.00in /  0mm 0 W/m2
06:14 9.1 °F /  -12.7 °C 3.1 °F /  -16.1 °C 30.35in /  1027.7hPa Calm     76% 0.00in /  0mm 0 W/m2
06:19 9 °F /  -12.8 °C 3 °F /  -16.1 °C 30.35in /  1027.7hPa Calm     76% 0.00in /  0mm 0 W/m2
06:24 9 °F /  -12.8 °C 3 °F /  -16.1 °C 30.35in /  1027.7hPa Calm     76% 0.00in /  0mm 0 W/m2
06:29 8.9 °F /  -12.8 °C 3 °F /  -16.1 °C 30.35in /  1027.7hPa Calm     76.3% 0.00in /  0mm 0 W/m2
06:34 8.9 °F /  -12.8 °C 3.2 °F /  -16 °C 30.35in /  1027.7hPa Calm     77% 0.00in /  0mm 0 W/m2
06:39 8.9 °F /  -12.8 °C 3.1 °F /  -16.1 °C 30.35in /  1027.7hPa Calm     77% 0.00in /  0mm 0 W/m2
06:44 8.9 °F /  -12.8 °C 3.2 °F /  -16 °C 30.35in /  1027.7hPa Calm     77% 0.00in /  0mm 0 W/m2
06:49 8.9 °F /  -12.8 °C 3.2 °F /  -16 °C 30.34in /  1027.3hPa Calm     77% 0.00in /  0mm 0 W/m2
06:54 9 °F /  -12.8 °C 3.2 °F /  -16 °C 30.34in /  1027.3hPa Calm     77% 0.00in /  0mm 0 W/m2
06:59 9 °F /  -12.8 °C 3.3 °F /  -15.9 °C 30.34in /  1027.3hPa Calm     77% 0.00in /  0mm 0 W/m2
07:04 9.1 °F /  -12.7 °C 3.4 °F /  -15.9 °C 30.35in /  1027.7hPa Calm     77% 0.00in /  0mm 0 W/m2
07:09 9.2 °F /  -12.7 °C 3.5 °F /  -15.8 °C 30.34in /  1027.3hPa Calm     77% 0.00in /  0mm 5 W/m2
07:14 9.2 °F /  -12.7 °C 3.5 °F /  -15.8 °C 30.34in /  1027.3hPa Calm     77% 0.00in /  0mm 9 W/m2
07:19 9.3 °F /  -12.6 °C 3.5 °F /  -15.8 °C 30.34in /  1027.3hPa Calm     77% 0.00in /  0mm 12 W/m2
07:24 9.3 °F /  -12.6 °C 3.6 °F /  -15.8 °C 30.35in /  1027.7hPa Calm     77% 0.00in /  0mm 19 W/m2
07:29 9.3 °F /  -12.6 °C 3.8 °F /  -15.7 °C 30.35in /  1027.7hPa Calm     78% 0.00in /  0mm 23 W/m2
07:34 9.3 °F /  -12.6 °C 3.8 °F /  -15.7 °C 30.35in /  1027.7hPa Calm     78% 0.00in /  0mm 26 W/m2
07:39 9.3 °F /  -12.6 °C 3.8 °F /  -15.7 °C 30.35in /  1027.7hPa Calm     78.1% 0.00in /  0mm 32 W/m2
07:44 9.4 °F /  -12.6 °C 4.2 °F /  -15.4 °C 30.34in /  1027.3hPa Calm     79% 0.00in /  0mm 40 W/m2
07:49 9.6 °F /  -12.4 °C 4.4 °F /  -15.3 °C 30.34in /  1027.3hPa Calm     79% 0.00in /  0mm 47 W/m2
07:54 9.8 °F /  -12.3 °C 4.6 °F /  -15.2 °C 30.34in /  1027.3hPa Calm     78.8% 0.00in /  0mm 53 W/m2
07:59 10.1 °F /  -12.2 °C 4.7 °F /  -15.2 °C 30.35in /  1027.7hPa Calm     78% 0.00in /  0mm 63 W/m2
08:00 10.3 °F /  -12.1 °C 4.5 °F /  -15.3 °C 30.35in /  1027.7hPa Calm     77% 0.00in /  0mm 63 W/m2
08:09 10.8 °F /  -11.8 °C 4.8 °F /  -15.1 °C 30.34in /  1027.3hPa NE 1.5mph /  2.4km/h 4mph /  6.4km/h 76.1% 0.00in /  0mm 76 W/m2
08:14 11.2 °F /  -11.6 °C 5 °F /  -15 °C 30.34in /  1027.3hPa NE 0.4mph /  0.6km/h 4mph /  6.4km/h 75.5% 0.00in /  0mm 88 W/m2
08:19 11.5 °F /  -11.4 °C 5.1 °F /  -14.9 °C 30.34in /  1027.3hPa NE 1mph /  1.6km/h 4mph /  6.4km/h 74.9% 0.00in /  0mm 95 W/m2
08:24 11.8 °F /  -11.2 °C 5.1 °F /  -14.9 °C 30.35in /  1027.7hPa NE 1.8mph /  2.9km/h 5mph /  8km/h 73.9% 0.00in /  0mm 97 W/m2
08:29 12 °F /  -11.1 °C 5 °F /  -15 °C 30.35in /  1027.7hPa NE 1.2mph /  1.9km/h 5mph /  8km/h 73% 0.00in /  0mm 97 W/m2
08:34 12.1 °F /  -11.1 °C 5.1 °F /  -14.9 °C 30.34in /  1027.3hPa NE 0.6mph /  1km/h 5mph /  8km/h 72.7% 0.00in /  0mm 100 W/m2
08:39 12.4 °F /  -10.9 °C 5.4 °F /  -14.8 °C 30.35in /  1027.7hPa NE 0.8mph /  1.3km/h 5mph /  8km/h 73% 0.00in /  0mm 98 W/m2
08:44 12.7 °F /  -10.7 °C 5.3 °F /  -14.8 °C 30.35in /  1027.7hPa NE 2mph /  3.2km/h 5mph /  8km/h 71.9% 0.00in /  0mm 113 W/m2
08:49 12.8 °F /  -10.7 °C 5.1 °F /  -14.9 °C 30.34in /  1027.3hPa NE 2.8mph /  4.5km/h 5mph /  8km/h 71% 0.00in /  0mm 128 W/m2
08:54 12.9 °F /  -10.6 °C 5.1 °F /  -14.9 °C 30.34in /  1027.3hPa NE 1.4mph /  2.3km/h 5mph /  8km/h 70.6% 0.00in /  0mm 135 W/m2
08:59 13 °F /  -10.6 °C 5.3 °F /  -14.8 °C 30.34in /  1027.3hPa NE 1.3mph /  2.1km/h 8mph /  12.9km/h 70.6% 0.00in /  0mm 141 W/m2
09:04 13.2 °F /  -10.4 °C 5.2 °F /  -14.9 °C 30.34in /  1027.3hPa NE 3.8mph /  6.1km/h 8mph /  12.9km/h 70% 0.00in /  0mm 149 W/m2
09:09 13.4 °F /  -10.3 °C 5.5 °F /  -14.7 °C 30.33in /  1027hPa NE 2mph /  3.2km/h 8mph /  12.9km/h 70% 0.00in /  0mm 163 W/m2
09:14 13.7 °F /  -10.2 °C 5.7 °F /  -14.6 °C 30.33in /  1027hPa NNE 1.3mph /  2.1km/h 8mph /  12.9km/h 70% 0.00in /  0mm 169 W/m2
09:19 14 °F /  -10 °C 6 °F /  -14.4 °C 30.33in /  1027hPa NNE 1.4mph /  2.3km/h 8mph /  12.9km/h 69.9% 0.00in /  0mm 158 W/m2
09:24 14.2 °F /  -9.9 °C 5.9 °F /  -14.5 °C 30.33in /  1027hPa Calm   8mph /  12.9km/h 69% 0.00in /  0mm 179 W/m2
09:29 14.4 °F /  -9.8 °C 6.2 °F /  -14.3 °C 30.33in /  1027hPa NNE 0.1mph /  0.2km/h 8mph /  12.9km/h 69.1% 0.00in /  0mm 183 W/m2
09:34 14.8 °F /  -9.6 °C 6.3 °F /  -14.3 °C 30.33in /  1027hPa NNE 1.4mph /  2.3km/h 8mph /  12.9km/h 68.4% 0.00in /  0mm 195 W/m2
09:39 15 °F /  -9.4 °C 6.2 °F /  -14.3 °C 30.33in /  1027hPa NE 2.1mph /  3.4km/h 5mph /  8km/h 67.4% 0.00in /  0mm 204 W/m2
09:44 15.1 °F /  -9.4 °C 6.2 °F /  -14.3 °C 30.34in /  1027.3hPa NE 2.1mph /  3.4km/h 5mph /  8km/h 67% 0.00in /  0mm 200 W/m2
09:49 15.4 °F /  -9.2 °C 6.3 °F /  -14.3 °C 30.34in /  1027.3hPa North 2.5mph /  4km/h 7mph /  11.3km/h 66.6% 0.00in /  0mm 199 W/m2
09:54 15.7 °F /  -9.1 °C 6.5 °F /  -14.2 °C 30.34in /  1027.3hPa NNW 1.6mph /  2.6km/h 7mph /  11.3km/h 66.6% 0.00in /  0mm 255 W/m2
09:59 16.2 °F /  -8.8 °C 6.6 °F /  -14.1 °C 30.34in /  1027.3hPa NNE 1.8mph /  2.9km/h 7mph /  11.3km/h 65.4% 0.00in /  0mm 237 W/m2
10:04 16.4 °F /  -8.7 °C 6.2 °F /  -14.3 °C 30.34in /  1027.3hPa NE 1.7mph /  2.7km/h 7mph /  11.3km/h 63.5% 0.00in /  0mm 183 W/m2
10:09 16.7 °F /  -8.5 °C 6.6 °F /  -14.1 °C 30.34in /  1027.3hPa NE 1.6mph /  2.6km/h 5mph /  8km/h 64% 0.00in /  0mm 183 W/m2
10:14 16.9 °F /  -8.4 °C 6.9 °F /  -13.9 °C 30.34in /  1027.3hPa NNE 1.9mph /  3.1km/h 6mph /  9.7km/h 64% 0.00in /  0mm 197 W/m2
10:19 17.1 °F /  -8.3 °C 6.6 °F /  -14.1 °C 30.34in /  1027.3hPa NNW 3.3mph /  5.3km/h 9mph /  14.5km/h 62.9% 0.00in /  0mm 193 W/m2
10:24 17.1 °F /  -8.3 °C 6.3 °F /  -14.3 °C 30.34in /  1027.3hPa NNW 3.6mph /  5.8km/h 11mph /  17.7km/h 62% 0.00in /  0mm 179 W/m2
10:29 17 °F /  -8.3 °C 6.2 °F /  -14.3 °C 30.34in /  1027.3hPa NNE 3.9mph /  6.3km/h 11mph /  17.7km/h 61.7% 0.00in /  0mm 185 W/m2
10:34 16.9 °F /  -8.4 °C 5.8 °F /  -14.6 °C 30.34in /  1027.3hPa ENE 2.2mph /  3.5km/h 11mph /  17.7km/h 61% 0.00in /  0mm 211 W/m2
10:39 16.9 °F /  -8.4 °C 5.8 °F /  -14.6 °C 30.34in /  1027.3hPa NNE 1.6mph /  2.6km/h 6mph /  9.7km/h 61% 0.00in /  0mm 213 W/m2
10:44 17 °F /  -8.3 °C 6.3 °F /  -14.3 °C 30.34in /  1027.3hPa NW 1.6mph /  2.6km/h 6mph /  9.7km/h 62.1% 0.00in /  0mm 218 W/m2
10:49 17.3 °F /  -8.2 °C 6.7 °F /  -14.1 °C 30.34in /  1027.3hPa NNW 1.3mph /  2.1km/h 6mph /  9.7km/h 62.5% 0.00in /  0mm 244 W/m2
10:54 17.6 °F /  -8 °C 6.8 °F /  -14 °C 30.34in /  1027.3hPa NNW 2.8mph /  4.5km/h 7mph /  11.3km/h 62% 0.00in /  0mm 278 W/m2
10:59 18.1 °F /  -7.7 °C 7.1 °F /  -13.8 °C 30.33in /  1027hPa North 1.4mph /  2.3km/h 7mph /  11.3km/h 61.5% 0.00in /  0mm 276 W/m2
11:04 18.5 °F /  -7.5 °C 7.5 °F /  -13.6 °C 30.33in /  1027hPa NNE 1.1mph /  1.8km/h 7mph /  11.3km/h 61.6% 0.00in /  0mm 279 W/m2
11:09 18.9 °F /  -7.3 °C 7.6 °F /  -13.6 °C 30.33in /  1027hPa NNW 2.9mph /  4.7km/h 7mph /  11.3km/h 60.9% 0.00in /  0mm 323 W/m2
11:14 19.2 °F /  -7.1 °C 7.9 °F /  -13.4 °C 30.32in /  1026.6hPa NNW 3mph /  4.8km/h 9mph /  14.5km/h 60.8% 0.00in /  0mm 327 W/m2
11:19 19.5 °F /  -6.9 °C 7.8 °F /  -13.4 °C 30.33in /  1027hPa NNE 3.5mph /  5.6km/h 9mph /  14.5km/h 59.9% 0.00in /  0mm 313 W/m2
11:24 19.5 °F /  -6.9 °C 7.1 °F /  -13.8 °C 30.33in /  1027hPa NNE 2.5mph /  4km/h 9mph /  14.5km/h 58% 0.00in /  0mm 311 W/m2
11:29 19.6 °F /  -6.9 °C 7.3 °F /  -13.7 °C 30.32in /  1026.6hPa North 2.5mph /  4km/h 9mph /  14.5km/h 58% 0.00in /  0mm 258 W/m2
11:34 19.7 °F /  -6.8 °C 7.4 °F /  -13.7 °C 30.32in /  1026.6hPa North 2.7mph /  4.3km/h 9mph /  14.5km/h 58.2% 0.00in /  0mm 223 W/m2
11:39 19.8 °F /  -6.8 °C 7.4 °F /  -13.7 °C 30.31in /  1026.3hPa NNW 2.1mph /  3.4km/h 9mph /  14.5km/h 57.9% 0.00in /  0mm 221 W/m2
11:44 19.6 °F /  -6.9 °C 6.9 °F /  -13.9 °C 30.31in /  1026.3hPa ENE 2.5mph /  4km/h 9mph /  14.5km/h 57.2% 0.00in /  0mm 237 W/m2
11:49 19.5 °F /  -6.9 °C 7.1 °F /  -13.8 °C 30.30in /  1026hPa NE 3.8mph /  6.1km/h 9mph /  14.5km/h 58% 0.00in /  0mm 241 W/m2
11:54 19.5 °F /  -6.9 °C 7.3 °F /  -13.7 °C 30.30in /  1026hPa North 2.1mph /  3.4km/h 9mph /  14.5km/h 58.4% 0.00in /  0mm 232 W/m2
11:59 19.7 °F /  -6.8 °C 7.4 °F /  -13.7 °C 30.30in /  1026hPa NE 2.8mph /  4.5km/h 9mph /  14.5km/h 58.2% 0.00in /  0mm 227 W/m2
12:09 19.5 °F /  -6.9 °C 7.2 °F /  -13.8 °C 30.29in /  1025.6hPa NE 2.4mph /  3.9km/h 6mph /  9.7km/h 58% 0.00in /  0mm 229 W/m2
12:14 19.7 °F /  -6.8 °C 7.6 °F /  -13.6 °C 30.29in /  1025.6hPa NE 3.3mph /  5.3km/h 10mph /  16.1km/h 58.7% 0.00in /  0mm 221 W/m2
12:19 19.6 °F /  -6.9 °C 6.9 °F /  -13.9 °C 30.28in /  1025.3hPa ENE 3.1mph /  5km/h 10mph /  16.1km/h 57.1% 0.00in /  0mm 229 W/m2
12:24 19.4 °F /  -7 °C 7.2 °F /  -13.8 °C 30.28in /  1025.3hPa NE 1mph /  1.6km/h 10mph /  16.1km/h 58.3% 0.00in /  0mm 241 W/m2
12:29 19.8 °F /  -6.8 °C 8 °F /  -13.3 °C 30.28in /  1025.3hPa North 2.8mph /  4.5km/h 10mph /  16.1km/h 59.6% 0.00in /  0mm 241 W/m2
12:34 20.2 °F /  -6.6 °C 8.2 °F /  -13.2 °C 30.28in /  1025.3hPa NNW 1.8mph /  2.9km/h 10mph /  16.1km/h 59% 0.00in /  0mm 237 W/m2
12:39 20.5 °F /  -6.4 °C 8.2 °F /  -13.2 °C 30.28in /  1025.3hPa North 2.2mph /  3.5km/h 8mph /  12.9km/h 58.2% 0.00in /  0mm 234 W/m2
12:44 20.8 °F /  -6.2 °C 7.8 °F /  -13.4 °C 30.27in /  1024.9hPa NE 2.8mph /  4.5km/h 8mph /  12.9km/h 56.7% 0.00in /  0mm 218 W/m2
12:49 20.8 °F /  -6.2 °C 7.4 °F /  -13.7 °C 30.28in /  1025.3hPa NE 2.3mph /  3.7km/h 8mph /  12.9km/h 55.6% 0.00in /  0mm 207 W/m2
12:54 20.9 °F /  -6.2 °C 7.4 °F /  -13.7 °C 30.28in /  1025.3hPa NE 1.2mph /  1.9km/h 8mph /  12.9km/h 55.4% 0.00in /  0mm 214 W/m2
12:59 21 °F /  -6.1 °C 7.8 °F /  -13.4 °C 30.28in /  1025.3hPa NE 1.6mph /  2.6km/h 8mph /  12.9km/h 56% 0.00in /  0mm 220 W/m2
13:04 21.3 °F /  -5.9 °C 8 °F /  -13.3 °C 30.28in /  1025.3hPa NNE 1.6mph /  2.6km/h 8mph /  12.9km/h 55.9% 0.00in /  0mm 218 W/m2
13:09 21.5 °F /  -5.8 °C 8 °F /  -13.3 °C 30.28in /  1025.3hPa NNE 1.5mph /  2.4km/h 5mph /  8km/h 55.2% 0.00in /  0mm 211 W/m2
13:14 21.7 °F /  -5.7 °C 8 °F /  -13.3 °C 30.28in /  1025.3hPa NNE 1.2mph /  1.9km/h 5mph /  8km/h 54.9% 0.00in /  0mm 200 W/m2
13:19 21.9 °F /  -5.6 °C 8.1 °F /  -13.3 °C 30.28in /  1025.3hPa NNE 0.3mph /  0.5km/h 5mph /  8km/h 54.8% 0.00in /  0mm 193 W/m2
13:24 21.8 °F /  -5.7 °C 7.6 °F /  -13.6 °C 30.28in /  1025.3hPa Calm   5mph /  8km/h 53.6% 0.00in /  0mm 186 W/m2
13:29 21.6 °F /  -5.8 °C 7.3 °F /  -13.7 °C 30.28in /  1025.3hPa NE 0.3mph /  0.5km/h 5mph /  8km/h 53.2% 0.00in /  0mm 176 W/m2
13:34 21.7 °F /  -5.7 °C 7.9 °F /  -13.4 °C 30.28in /  1025.3hPa Calm   5mph /  8km/h 54.8% 0.00in /  0mm 181 W/m2
13:39 21.8 °F /  -5.7 °C 7.5 °F /  -13.6 °C 30.27in /  1024.9hPa NE 2.2mph /  3.5km/h 4mph /  6.4km/h 53.5% 0.00in /  0mm 190 W/m2
13:44 21.7 °F /  -5.7 °C 7.3 °F /  -13.7 °C 30.27in /  1024.9hPa NE 1.4mph /  2.3km/h 4mph /  6.4km/h 53.1% 0.00in /  0mm 229 W/m2
13:49 21.8 °F /  -5.7 °C 7.4 °F /  -13.7 °C 30.27in /  1024.9hPa Calm   4mph /  6.4km/h 53.3% 0.00in /  0mm 229 W/m2
13:54 21.8 °F /  -5.7 °C 7.4 °F /  -13.7 °C 30.27in /  1024.9hPa NNE 1.8mph /  2.9km/h 5mph /  8km/h 53.3% 0.00in /  0mm 213 W/m2
13:59 22 °F /  -5.6 °C 7.6 °F /  -13.6 °C 30.27in /  1024.9hPa NNE 0.1mph /  0.2km/h 5mph /  8km/h 53.4% 0.00in /  0mm 190 W/m2
14:04 22.2 °F /  -5.4 °C 7.7 °F /  -13.5 °C 30.28in /  1025.3hPa Calm   5mph /  8km/h 53% 0.00in /  0mm 174 W/m2
14:09 22.4 °F /  -5.3 °C 7.6 °F /  -13.6 °C 30.28in /  1025.3hPa Calm     52.3% 0.00in /  0mm 165 W/m2
14:14 22.5 °F /  -5.3 °C 7.6 °F /  -13.6 °C 30.28in /  1025.3hPa Calm     52% 0.00in /  0mm 162 W/m2
14:19 22.7 °F /  -5.2 °C 7.6 °F /  -13.6 °C 30.28in /  1025.3hPa Calm     51.7% 0.00in /  0mm 169 W/m2
14:24 22.7 °F /  -5.2 °C 7.3 °F /  -13.7 °C 30.28in /  1025.3hPa Calm     51% 0.00in /  0mm 169 W/m2
14:29 22.7 °F /  -5.2 °C 7.7 °F /  -13.5 °C 30.28in /  1025.3hPa Calm     52% 0.00in /  0mm 172 W/m2
14:34 22.8 °F /  -5.1 °C 7.5 °F /  -13.6 °C 30.28in /  1025.3hPa Calm     51.2% 0.00in /  0mm 176 W/m2
14:39 22.8 °F /  -5.1 °C 7 °F /  -13.9 °C 30.29in /  1025.6hPa Calm     50% 0.00in /  0mm 153 W/m2
14:44 22.8 °F /  -5.1 °C 6.7 °F /  -14.1 °C 30.28in /  1025.3hPa Calm     49.3% 0.00in /  0mm 137 W/m2
14:49 22.7 °F /  -5.2 °C 6.6 °F /  -14.1 °C 30.29in /  1025.6hPa Calm     49.3% 0.00in /  0mm 146 W/m2
14:54 22.7 °F /  -5.2 °C 7.2 °F /  -13.8 °C 30.29in /  1025.6hPa Calm     50.8% 0.00in /  0mm 158 W/m2
14:59 22.9 °F /  -5.1 °C 7.4 °F /  -13.7 °C 30.28in /  1025.3hPa Calm     50.7% 0.00in /  0mm 160 W/m2
15:04 23 °F /  -5 °C 7.5 °F /  -13.6 °C 30.28in /  1025.3hPa Calm     50.8% 0.00in /  0mm 123 W/m2
15:09 23.2 °F /  -4.9 °C 7.7 °F /  -13.5 °C 30.28in /  1025.3hPa Calm     50.8% 0.00in /  0mm 120 W/m2
15:14 23.4 °F /  -4.8 °C 7.7 °F /  -13.5 °C 30.29in /  1025.6hPa Calm     50.6% 0.00in /  0mm 95 W/m2
15:19 23.3 °F /  -4.8 °C 6.8 °F /  -14 °C 30.29in /  1025.6hPa Calm     48.5% 0.00in /  0mm 76 W/m2
15:24 23.3 °F /  -4.8 °C 7.5 °F /  -13.6 °C 30.28in /  1025.3hPa Calm     50.2% 0.00in /  0mm 76 W/m2
15:29 23.3 °F /  -4.8 °C 7.5 °F /  -13.6 °C 30.28in /  1025.3hPa Calm     50.2% 0.00in /  0mm 74 W/m2
15:34 23.3 °F /  -4.8 °C 7.4 °F /  -13.7 °C 30.28in /  1025.3hPa Calm     50% 0.00in /  0mm 56 W/m2
15:39 23.2 °F /  -4.9 °C 7.2 °F /  -13.8 °C 30.27in /  1024.9hPa Calm     49.9% 0.00in /  0mm 54 W/m2
15:44 23 °F /  -5 °C 6.7 °F /  -14.1 °C 30.27in /  1024.9hPa Calm     49% 0.00in /  0mm 53 W/m2
15:49 22.9 °F /  -5.1 °C 6.8 °F /  -14 °C 30.27in /  1024.9hPa Calm     49.4% 0.00in /  0mm 53 W/m2
15:54 22.8 °F /  -5.1 °C 7 °F /  -13.9 °C 30.27in /  1024.9hPa Calm     50% 0.00in /  0mm 49 W/m2
15:59 22.7 °F /  -5.2 °C 7 °F /  -13.9 °C 30.27in /  1024.9hPa Calm     50.2% 0.00in /  0mm 46 W/m2
16:00 22.8 °F /  -5.1 °C 7.4 °F /  -13.7 °C 30.27in /  1024.9hPa Calm     51% 0.00in /  0mm 42 W/m2
16:09 22.9 °F /  -5.1 °C 7.4 °F /  -13.7 °C 30.27in /  1024.9hPa Calm     50.8% 0.00in /  0mm 40 W/m2
16:14 22.9 °F /  -5.1 °C 7 °F /  -13.9 °C 30.27in /  1024.9hPa Calm     50% 0.00in /  0mm 46 W/m2
16:19 22.7 °F /  -5.2 °C 6.7 °F /  -14.1 °C 30.27in /  1024.9hPa Calm     49.4% 0.00in /  0mm 46 W/m2
16:24 22.7 °F /  -5.2 °C 6.9 °F /  -13.9 °C 30.27in /  1024.9hPa Calm     50.1% 0.00in /  0mm 42 W/m2
16:29 22.7 °F /  -5.2 °C 7.8 °F /  -13.4 °C 30.27in /  1024.9hPa Calm     52.2% 0.00in /  0mm 37 W/m2
16:34 22.8 °F /  -5.1 °C 7.5 °F /  -13.6 °C 30.27in /  1024.9hPa Calm     51.3% 0.00in /  0mm 28 W/m2
16:39 22.7 °F /  -5.2 °C 7.2 °F /  -13.8 °C 30.27in /  1024.9hPa Calm     50.7% 0.00in /  0mm 21 W/m2
16:44 22.7 °F /  -5.2 °C 7.3 °F /  -13.7 °C 30.27in /  1024.9hPa Calm     51% 0.00in /  0mm 16 W/m2
16:49 22.7 °F /  -5.2 °C 7.4 °F /  -13.7 °C 30.27in /  1024.9hPa Calm     51.2% 0.00in /  0mm 12 W/m2
16:54 22.7 °F /  -5.2 °C 7.3 °F /  -13.7 °C 30.27in /  1024.9hPa Calm     51% 0.00in /  0mm 9 W/m2
16:59 22.7 °F /  -5.2 °C 7.8 °F /  -13.4 °C 30.27in /  1024.9hPa Calm     52.1% 0.00in /  0mm 5 W/m2
17:04 22.7 °F /  -5.2 °C 8 °F /  -13.3 °C 30.27in /  1024.9hPa Calm     52.8% 0.00in /  0mm 0 W/m2
17:09 22.6 °F /  -5.2 °C 8.1 °F /  -13.3 °C 30.27in /  1024.9hPa Calm     53.2% 0.00in /  0mm 0 W/m2
17:14 22.6 °F /  -5.2 °C 8.2 °F /  -13.2 °C 30.26in /  1024.6hPa Calm     53.4% 0.00in /  0mm 0 W/m2
17:19 22.6 °F /  -5.2 °C 8.6 °F /  -13 °C 30.26in /  1024.6hPa Calm     54.4% 0.00in /  0mm 0 W/m2
17:24 22.5 °F /  -5.3 °C 8.5 °F /  -13.1 °C 30.26in /  1024.6hPa Calm     54.3% 0.00in /  0mm 0 W/m2
17:29 22.5 °F /  -5.3 °C 8.1 °F /  -13.3 °C 30.26in /  1024.6hPa Calm     53.3% 0.00in /  0mm 0 W/m2
17:34 22.5 °F /  -5.3 °C 8 °F /  -13.3 °C 30.27in /  1024.9hPa Calm     53% 0.00in /  0mm 0 W/m2
17:39 22.5 °F /  -5.3 °C 7.6 °F /  -13.6 °C 30.27in /  1024.9hPa Calm     52.1% 0.00in /  0mm 0 W/m2
17:44 22.4 °F /  -5.3 °C 7.7 °F /  -13.5 °C 30.26in /  1024.6hPa Calm     52.7% 0.00in /  0mm 0 W/m2
17:49 22.4 °F /  -5.3 °C 8.1 °F /  -13.3 °C 30.26in /  1024.6hPa Calm     53.5% 0.00in /  0mm 0 W/m2
17:54 22.4 °F /  -5.3 °C 8.3 °F /  -13.2 °C 30.27in /  1024.9hPa Calm     54% 0.00in /  0mm 0 W/m2
17:59 22.4 °F /  -5.3 °C 8.3 °F /  -13.2 °C 30.27in /  1024.9hPa Calm     54.1% 0.00in /  0mm 0 W/m2
18:04 22.4 °F /  -5.3 °C 8.9 °F /  -12.8 °C 30.27in /  1024.9hPa Calm     55.5% 0.00in /  0mm 0 W/m2
18:09 22.4 °F /  -5.3 °C 8.7 °F /  -12.9 °C 30.27in /  1024.9hPa Calm     55% 0.00in /  0mm 0 W/m2
18:14 22.4 °F /  -5.3 °C 8.7 °F /  -12.9 °C 30.27in /  1024.9hPa Calm     55% 0.00in /  0mm 0 W/m2
18:19 22.5 °F /  -5.3 °C 8.9 °F /  -12.8 °C 30.27in /  1024.9hPa Calm     55.3% 0.00in /  0mm 0 W/m2
18:24 22.5 °F /  -5.3 °C 9.2 °F /  -12.7 °C 30.27in /  1024.9hPa Calm     56% 0.00in /  0mm 0 W/m2
18:29 22.5 °F /  -5.3 °C 9 °F /  -12.8 °C 30.27in /  1024.9hPa Calm     55.6% 0.00in /  0mm 0 W/m2
18:34 22.5 °F /  -5.3 °C 9.2 °F /  -12.7 °C 30.28in /  1025.3hPa Calm     56% 0.00in /  0mm 0 W/m2
18:39 22.5 °F /  -5.3 °C 9.2 °F /  -12.7 °C 30.28in /  1025.3hPa Calm     56% 0.00in /  0mm 0 W/m2
18:44 22.5 °F /  -5.3 °C 9.3 °F /  -12.6 °C 30.28in /  1025.3hPa Calm     56.4% 0.00in /  0mm 0 W/m2
18:49 22.5 °F /  -5.3 °C 9.8 °F /  -12.3 °C 30.27in /  1024.9hPa Calm     57.5% 0.00in /  0mm 0 W/m2
18:54 22.5 °F /  -5.3 °C 9.8 °F /  -12.3 °C 30.27in /  1024.9hPa Calm     57.5% 0.00in /  0mm 0 W/m2
18:59 22.6 °F /  -5.2 °C 10 °F /  -12.2 °C 30.27in /  1024.9hPa Calm     57.9% 0.00in /  0mm 0 W/m2
19:04 22.6 °F /  -5.2 °C 9.7 °F /  -12.4 °C 30.27in /  1024.9hPa Calm     57% 0.00in /  0mm 0 W/m2
19:09 22.6 °F /  -5.2 °C 9.7 °F /  -12.4 °C 30.26in /  1024.6hPa Calm     57% 0.00in /  0mm 0 W/m2
19:14 22.5 °F /  -5.3 °C 9.6 °F /  -12.4 °C 30.26in /  1024.6hPa Calm     57% 0.00in /  0mm 0 W/m2
19:19 22.4 °F /  -5.3 °C 9.5 °F /  -12.5 °C 30.26in /  1024.6hPa Calm     57% 0.00in /  0mm 0 W/m2
19:24 22.3 °F /  -5.4 °C 9.4 °F /  -12.6 °C 30.26in /  1024.6hPa Calm     57% 0.00in /  0mm 0 W/m2
19:29 22.2 °F /  -5.4 °C 9.6 °F /  -12.4 °C 30.26in /  1024.6hPa Calm     57.7% 0.00in /  0mm 0 W/m2
19:34 22.2 °F /  -5.4 °C 9.5 °F /  -12.5 °C 30.26in /  1024.6hPa Calm     57.5% 0.00in /  0mm 0 W/m2
19:39 22.2 °F /  -5.4 °C 9.4 °F /  -12.6 °C 30.26in /  1024.6hPa Calm     57.4% 0.00in /  0mm 0 W/m2
19:44 22.3 °F /  -5.4 °C 9.8 °F /  -12.3 °C 30.26in /  1024.6hPa Calm     58.3% 0.00in /  0mm 0 W/m2
19:49 22.3 °F /  -5.4 °C 10 °F /  -12.2 °C 30.26in /  1024.6hPa Calm     58.6% 0.00in /  0mm 0 W/m2
19:54 22.3 °F /  -5.4 °C 9.8 °F /  -12.3 °C 30.26in /  1024.6hPa Calm     58% 0.00in /  0mm 0 W/m2
19:59 22.4 °F /  -5.3 °C 9.9 °F /  -12.3 °C 30.26in /  1024.6hPa Calm     58% 0.00in /  0mm 0 W/m2
20:09 22.3 °F /  -5.4 °C 9.8 °F /  -12.3 °C 30.26in /  1024.6hPa Calm     58% 0.00in /  0mm 0 W/m2
20:14 22.3 °F /  -5.4 °C 9.8 °F /  -12.3 °C 30.26in /  1024.6hPa Calm     58.2% 0.00in /  0mm 0 W/m2
20:19 22.3 °F /  -5.4 °C 9.8 °F /  -12.3 °C 30.26in /  1024.6hPa Calm     58% 0.00in /  0mm 0 W/m2
20:24 22.4 °F /  -5.3 °C 10.2 °F /  -12.1 °C 30.26in /  1024.6hPa Calm     58.9% 0.00in /  0mm 0 W/m2
20:29 22.4 °F /  -5.3 °C 10.3 °F /  -12.1 °C 30.26in /  1024.6hPa Calm     59% 0.00in /  0mm 0 W/m2
20:34 22.4 °F /  -5.3 °C 10.3 °F /  -12.1 °C 30.25in /  1024.3hPa Calm     59% 0.00in /  0mm 0 W/m2
20:39 22.4 °F /  -5.3 °C 10.1 °F /  -12.2 °C 30.25in /  1024.3hPa Calm     58.7% 0.00in /  0mm 0 W/m2
20:44 22.4 °F /  -5.3 °C 9.9 °F /  -12.3 °C 30.25in /  1024.3hPa Calm     58.2% 0.00in /  0mm 0 W/m2
20:49 22.4 °F /  -5.3 °C 9.9 °F /  -12.3 °C 30.25in /  1024.3hPa Calm     58% 0.00in /  0mm 0 W/m2
20:54 22.3 °F /  -5.4 °C 9.8 °F /  -12.3 °C 30.25in /  1024.3hPa NE 0.5mph /  0.8km/h 6mph /  9.7km/h 58% 0.00in /  0mm 0 W/m2
20:59 22.2 °F /  -5.4 °C 10.1 °F /  -12.2 °C 30.25in /  1024.3hPa Calm   6mph /  9.7km/h 58.9% 0.00in /  0mm 0 W/m2
21:04 22.3 °F /  -5.4 °C 10.4 °F /  -12 °C 30.25in /  1024.3hPa NE 1.3mph /  2.1km/h 6mph /  9.7km/h 59.7% 0.00in /  0mm 0 W/m2
21:09 22.3 °F /  -5.4 °C 10.5 °F /  -11.9 °C 30.25in /  1024.3hPa NE 0.2mph /  0.3km/h 6mph /  9.7km/h 59.9% 0.00in /  0mm 0 W/m2
21:14 22.3 °F /  -5.4 °C 10.5 °F /  -11.9 °C 30.24in /  1023.9hPa Calm   6mph /  9.7km/h 60% 0.00in /  0mm 0 W/m2
21:19 22.3 °F /  -5.4 °C 10.7 °F /  -11.8 °C 30.24in /  1023.9hPa Calm   6mph /  9.7km/h 60.5% 0.00in /  0mm 0 W/m2
21:24 22.3 °F /  -5.4 °C 10.8 °F /  -11.8 °C 30.24in /  1023.9hPa North 2.1mph /  3.4km/h 6mph /  9.7km/h 60.7% 0.00in /  0mm 0 W/m2
21:29 22.3 °F /  -5.4 °C 10.9 °F /  -11.7 °C 30.24in /  1023.9hPa North 0.1mph /  0.2km/h 6mph /  9.7km/h 61% 0.00in /  0mm 0 W/m2
21:34 22.3 °F /  -5.4 °C 10.9 °F /  -11.7 °C 30.24in /  1023.9hPa NNW 1.1mph /  1.8km/h 6mph /  9.7km/h 61% 0.00in /  0mm 0 W/m2
21:39 22.3 °F /  -5.4 °C 11.2 °F /  -11.6 °C 30.24in /  1023.9hPa Calm   6mph /  9.7km/h 61.9% 0.00in /  0mm 0 W/m2
21:44 22.3 °F /  -5.4 °C 11.3 °F /  -11.5 °C 30.24in /  1023.9hPa NE 1.9mph /  3.1km/h 6mph /  9.7km/h 62% 0.00in /  0mm 0 W/m2
21:49 22.2 °F /  -5.4 °C 11.3 °F /  -11.5 °C 30.24in /  1023.9hPa NE 1.7mph /  2.7km/h 6mph /  9.7km/h 62.3% 0.00in /  0mm 0 W/m2
21:54 22.2 °F /  -5.4 °C 11.7 °F /  -11.3 °C 30.24in /  1023.9hPa Calm   6mph /  9.7km/h 63.4% 0.00in /  0mm 0 W/m2
21:59 22.1 °F /  -5.5 °C 12.2 °F /  -11 °C 30.24in /  1023.9hPa Calm   6mph /  9.7km/h 65% 0.00in /  0mm 0 W/m2
22:04 22 °F /  -5.6 °C 12.7 °F /  -10.7 °C 30.23in /  1023.6hPa Calm   6mph /  9.7km/h 66.8% 0.00in /  0mm 0 W/m2
22:09 22 °F /  -5.6 °C 13.2 °F /  -10.4 °C 30.23in /  1023.6hPa Calm     68.4% 0.00in /  0mm 0 W/m2
22:14 22 °F /  -5.6 °C 13.4 °F /  -10.3 °C 30.23in /  1023.6hPa Calm     69% 0.00in /  0mm 0 W/m2
22:19 21.9 °F /  -5.6 °C 13.6 °F /  -10.2 °C 30.23in /  1023.6hPa Calm   1mph /  1.6km/h 70% 0.00in /  0mm 0 W/m2
22:24 21.8 °F /  -5.7 °C 13.5 °F /  -10.3 °C 30.22in /  1023.2hPa NE 0.4mph /  0.6km/h 4mph /  6.4km/h 70% 0.00in /  0mm 0 W/m2
22:29 21.7 °F /  -5.7 °C 13.7 °F /  -10.2 °C 30.22in /  1023.2hPa NE 0.1mph /  0.2km/h 4mph /  6.4km/h 70.8% 0.00in /  0mm 0 W/m2
22:34 21.6 °F /  -5.8 °C 13.9 °F /  -10.1 °C 30.23in /  1023.6hPa NE 0.6mph /  1km/h 4mph /  6.4km/h 71.6% 0.00in /  0mm 0 W/m2
22:39 21.5 °F /  -5.8 °C 13.9 °F /  -10.1 °C 30.22in /  1023.2hPa NE 0.1mph /  0.2km/h 3mph /  4.8km/h 72% 0.00in /  0mm 0 W/m2
22:44 21.4 °F /  -5.9 °C 14 °F /  -10 °C 30.22in /  1023.2hPa Calm   3mph /  4.8km/h 72.5% 0.00in /  0mm 0 W/m2
22:49 21.4 °F /  -5.9 °C 14.3 °F /  -9.8 °C 30.22in /  1023.2hPa NE 0.7mph /  1.1km/h 4mph /  6.4km/h 73.7% 0.00in /  0mm 0 W/m2
22:54 21.4 °F /  -5.9 °C 14.5 °F /  -9.7 °C 30.21in /  1022.9hPa NE 0.3mph /  0.5km/h 4mph /  6.4km/h 74.3% 0.00in /  0mm 0 W/m2
22:59 21.4 °F /  -5.9 °C 14.7 °F /  -9.6 °C 30.21in /  1022.9hPa Calm   4mph /  6.4km/h 75% 0.00in /  0mm 0 W/m2
23:00 21.4 °F /  -5.9 °C 14.7 °F /  -9.6 °C 30.20in /  1022.6hPa Calm   4mph /  6.4km/h 75% 0.00in /  0mm 0 W/m2
23:09 21.4 °F /  -5.9 °C 14.7 °F /  -9.6 °C 30.21in /  1022.9hPa North 1.1mph /  1.8km/h 5mph /  8km/h 75% 0.00in /  0mm 0 W/m2
23:14 21.4 °F /  -5.9 °C 14.7 °F /  -9.6 °C 30.21in /  1022.9hPa North 2.9mph /  4.7km/h 6mph /  9.7km/h 75% 0.00in /  0mm 0 W/m2
23:19 21.3 °F /  -5.9 °C 15 °F /  -9.4 °C 30.20in /  1022.6hPa North 3.1mph /  5km/h 7mph /  11.3km/h 76% 0.00in /  0mm 0 W/m2
23:24 21.4 °F /  -5.9 °C 15 °F /  -9.4 °C 30.20in /  1022.6hPa North 3mph /  4.8km/h 7mph /  11.3km/h 76% 0.00in /  0mm 0 W/m2
23:29 21.3 °F /  -5.9 °C 15.1 °F /  -9.4 °C 30.19in /  1022.2hPa NNW 2.7mph /  4.3km/h 7mph /  11.3km/h 76.5% 0.00in /  0mm 0 W/m2
23:34 21.3 °F /  -5.9 °C 15.2 °F /  -9.3 °C 30.20in /  1022.6hPa NNW 3.9mph /  6.3km/h 9mph /  14.5km/h 77% 0.00in /  0mm 0 W/m2
23:39 21.3 °F /  -5.9 °C 15.4 °F /  -9.2 °C 30.20in /  1022.6hPa North 1.9mph /  3.1km/h 9mph /  14.5km/h 77.6% 0.00in /  0mm 0 W/m2
23:44 21.3 °F /  -5.9 °C 15.5 °F /  -9.2 °C 30.20in /  1022.6hPa NNW 3.1mph /  5km/h 11mph /  17.7km/h 78% 0.00in /  0mm 0 W/m2
23:49 21.2 °F /  -6 °C 15.6 °F /  -9.1 °C 30.20in /  1022.6hPa North 2.9mph /  4.7km/h 11mph /  17.7km/h 78.7% 0.00in /  0mm 0 W/m2
23:54 21.1 °F /  -6.1 °C 15.6 °F /  -9.1 °C 30.20in /  1022.6hPa North 2.7mph /  4.3km/h 11mph /  17.7km/h 79% 0.00in /  0mm 0 W/m2
23:59 21.1 °F /  -6.1 °C 15.9 °F /  -8.9 °C 30.20in /  1022.6hPa North 1.8mph /  2.9km/h 11mph /  17.7km/h 80% 0.00in /  0mm 0 W/m2
Hartford County Weather
Compliments of Weather Underground - 2 mb